Time;durP1;ratioP1;P1;durP2;ratioP2;P2;SDS_P1;SDS_P2;PMS_P1;PMS_P2;Temp;Humidity;BMP_temperature;BMP_pressure;BME280_temperature;BME280_humidity;BME280_pressure;Samples;Min_cycle;Max_cycle;Signal;HPM_P1;HPM_P2
2024/01/03 00:01:28;;;;;;;0.50;0.10;;;10.40;99.90;;;;;;5045597;28;20486;-75
2024/01/03 00:03:59;;;;;;;0.50;0.10;;;10.40;99.90;;;;;;5041793;28;20449;-76
2024/01/03 00:06:33;;;;;;;0.50;0.10;;;10.30;99.90;;;;;;5043426;28;20476;-76
2024/01/03 00:09:02;;;;;;;0.50;0.10;;;10.30;99.90;;;;;;5045849;28;20460;-75
2024/01/03 00:11:34;;;;;;;0.50;0.10;;;10.30;99.90;;;;;;5040998;28;20454;-77
2024/01/03 00:14:16;;;;;;;0.50;0.20;;;10.30;99.90;;;;;;5053413;28;20448;-77
2024/01/03 00:16:44;;;;;;;0.50;0.10;;;10.40;99.90;;;;;;5046598;28;20843;-77
2024/01/03 00:19:20;;;;;;;0.50;0.10;;;10.40;99.90;;;;;;5034806;28;20545;-75
2024/01/03 00:21:49;;;;;;;0.50;0.10;;;10.40;1.00;;;;;;5042965;28;20490;-77
2024/01/03 00:24:18;;;;;;;0.50;0.20;;;10.50;1.00;;;;;;5034809;28;20544;-77
2024/01/03 00:26:47;;;;;;;0.50;0.10;;;10.50;1.00;;;;;;5034181;28;20470;-76
2024/01/03 00:29:52;;;;;;;0.50;0.17;;;10.50;1.00;;;;;;5034977;28;20449;-75
2024/01/03 00:32:22;;;;;;;0.80;0.67;;;10.60;1.00;;;;;;5034910;28;20438;-76
2024/01/03 00:34:54;;;;;;;0.83;0.30;;;10.60;1.00;;;;;;5038761;28;20693;-76
2024/01/03 00:37:30;;;;;;;0.50;0.10;;;10.60;1.00;;;;;;5046881;28;20485;-76
2024/01/03 00:39:59;;;;;;;0.50;0.30;;;10.60;1.00;;;;;;5056286;28;20472;-75
2024/01/03 00:42:27;;;;;;;0.50;0.20;;;10.60;1.00;;;;;;5042956;28;21030;-77
2024/01/03 00:44:55;;;;;;;0.50;0.10;;;10.70;1.00;;;;;;5050033;28;20474;-76
2024/01/03 00:47:23;;;;;;;0.50;0.10;;;10.70;1.00;;;;;;5042232;28;20487;-76
2024/01/03 00:49:53;;;;;;;4.20;0.70;;;10.70;1.00;;;;;;5043175;28;20815;-76
2024/01/03 00:52:21;;;;;;;0.50;0.10;;;10.70;99.90;;;;;;5041032;28;20477;-77
2024/01/03 00:54:50;;;;;;;0.50;0.10;;;10.70;99.90;;;;;;5042505;28;20456;-76
2024/01/03 00:57:18;;;;;;;0.50;0.10;;;10.80;99.90;;;;;;5041338;28;20485;-76
2024/01/03 00:59:46;;;;;;;0.50;0.10;;;10.80;99.90;;;;;;5042565;28;20900;-75
2024/01/03 01:02:14;;;;;;;0.50;0.10;;;10.80;99.90;;;;;;5042613;28;20676;-77
2024/01/03 01:04:42;;;;;;;0.50;0.10;;;10.90;99.90;;;;;;5042198;28;20454;-76
2024/01/03 01:07:12;;;;;;;0.80;0.47;;;10.90;99.90;;;;;;5044964;28;20472;-77
2024/01/03 01:09:40;;;;;;;1.17;0.30;;;10.90;99.90;;;;;;5045802;28;20510;-77
2024/01/03 01:12:07;;;;;;;0.50;0.10;;;10.80;99.90;;;;;;5042784;28;20540;-77
2024/01/03 01:14:35;;;;;;;0.50;0.10;;;10.70;99.90;;;;;;5042350;28;20490;-77
2024/01/03 01:17:04;;;;;;;2.30;0.67;;;;;;;;;;5041605;28;20479;-77
2024/01/03 01:19:32;;;;;;;0.50;0.10;;;10.80;99.90;;;;;;5041962;28;20493;-77
2024/01/03 01:22:00;;;;;;;0.50;0.20;;;10.80;99.90;;;;;;5043288;28;20460;-77
2024/01/03 01:24:29;;;;;;;0.50;0.10;;;10.80;99.90;;;;;;5036917;28;20852;-76
2024/01/03 01:26:57;;;;;;;0.60;0.30;;;10.80;99.90;;;;;;5033773;28;20519;-76
2024/01/03 01:29:25;;;;;;;0.50;0.10;;;10.80;99.90;;;;;;5040422;28;20522;-76
2024/01/03 01:31:53;;;;;;;0.50;0.10;;;10.70;99.90;;;;;;5041939;28;20450;-77
2024/01/03 01:34:20;;;;;;;0.70;0.30;;;10.70;99.90;;;;;;5044981;28;20478;-77
2024/01/03 01:36:48;;;;;;;0.50;0.10;;;10.60;99.90;;;;;;5036452;28;20889;-77
2024/01/03 01:39:16;;;;;;;0.80;0.50;;;10.80;99.90;;;;;;5037259;28;20502;-77
2024/01/03 01:41:46;;;;;;;0.50;0.10;;;10.80;99.90;;;;;;5045213;28;20544;-76
2024/01/03 01:44:14;;;;;;;0.50;0.10;;;10.70;99.90;;;;;;5043251;28;20584;-76
2024/01/03 01:46:43;;;;;;;0.50;0.10;;;10.80;99.90;;;;;;5041147;28;20484;-76
2024/01/03 01:49:11;;;;;;;0.50;0.10;;;10.80;99.90;;;;;;5044096;28;20539;-77
2024/01/03 01:51:40;;;;;;;0.50;0.10;;;10.80;99.90;;;;;;5044932;28;20482;-77
2024/01/03 01:54:08;;;;;;;0.50;0.10;;;10.80;99.90;;;;;;5040140;28;20442;-76
2024/01/03 01:56:36;;;;;;;1.37;1.27;;;10.90;99.90;;;;;;5051155;28;20854;-77
2024/01/03 01:59:07;;;;;;;0.50;0.10;;;10.90;99.90;;;;;;5044507;28;20458;-76
2024/01/03 02:01:35;;;;;;;0.50;0.20;;;10.90;99.90;;;;;;5048073;28;21013;-77
2024/01/03 02:04:06;;;;;;;0.50;0.10;;;10.90;99.90;;;;;;5036977;28;20570;-76
2024/01/03 02:06:36;;;;;;;0.50;0.10;;;10.90;99.90;;;;;;5044900;28;20491;-76
2024/01/03 02:09:04;;;;;;;0.50;0.10;;;10.90;99.90;;;;;;5037826;28;20476;-76
2024/01/03 02:11:32;;;;;;;0.50;0.20;;;10.90;99.90;;;;;;5056860;28;20522;-76
2024/01/03 02:14:00;;;;;;;0.50;0.10;;;10.80;99.90;;;;;;5058009;28;20449;-76
2024/01/03 02:16:30;;;;;;;0.50;0.20;;;10.90;99.90;;;;;;5053381;28;20481;-76
2024/01/03 02:18:57;;;;;;;0.50;0.20;;;10.80;99.90;;;;;;5050162;28;20531;-76
2024/01/03 02:21:27;;;;;;;0.50;0.10;;;10.80;99.90;;;;;;5042402;28;20477;-76
2024/01/03 02:23:55;;;;;;;0.50;0.10;;;10.80;99.90;;;;;;5041133;28;20478;-76
2024/01/03 02:26:23;;;;;;;0.50;0.30;;;10.80;99.90;;;;;;5043319;28;20473;-75
2024/01/03 02:28:57;;;;;;;0.50;0.10;;;10.80;99.90;;;;;;5043420;28;20846;-78
2024/01/03 02:31:25;;;;;;;0.50;0.10;;;10.80;99.90;;;;;;5040519;28;20455;-75
2024/01/03 02:33:53;;;;;;;0.50;0.10;;;10.80;99.90;;;;;;5039796;28;20484;-77
2024/01/03 02:36:22;;;;;;;0.50;0.10;;;10.10;99.90;;;;;;5043561;28;20469;-77
2024/01/03 02:38:52;;;;;;;0.50;0.10;;;10.90;99.90;;;;;;5044243;28;20894;-75
2024/01/03 02:41:21;;;;;;;0.50;0.10;;;10.90;99.90;;;;;;5040504;28;20441;-76
2024/01/03 02:43:49;;;;;;;0.50;0.30;;;10.90;99.90;;;;;;5040875;28;20573;-77
2024/01/03 02:46:19;;;;;;;0.50;0.10;;;10.90;99.90;;;;;;5043490;28;20476;-76
2024/01/03 02:48:47;;;;;;;0.50;0.10;;;10.90;99.90;;;;;;5042335;28;20460;-76
2024/01/03 02:51:19;;;;;;;0.50;0.10;;;10.90;99.90;;;;;;5035921;28;20492;-77
2024/01/03 02:53:47;;;;;;;0.50;0.10;;;10.90;99.90;;;;;;5044217;28;20521;-76
2024/01/03 02:56:17;;;;;;;0.50;0.10;;;10.90;99.90;;;;;;5065918;22;20488;-73
2024/01/03 02:58:45;;;;;;;0.50;0.20;;;10.90;99.90;;;;;;5037443;28;20453;-73
2024/01/03 03:01:13;;;;;;;0.50;0.20;;;10.90;99.90;;;;;;5043543;28;20447;-73
2024/01/03 03:03:41;;;;;;;0.50;0.10;;;10.90;99.90;;;;;;5054191;28;20481;-73
2024/01/03 03:06:09;;;;;;;0.50;0.10;;;10.90;99.90;;;;;;5046537;28;20551;-73
2024/01/03 03:08:38;;;;;;;0.50;0.10;;;10.80;99.90;;;;;;5048263;28;20884;-73
2024/01/03 03:11:08;;;;;;;0.50;0.10;;;10.80;99.90;;;;;;5045803;28;20528;-73
2024/01/03 03:13:37;;;;;;;0.50;0.10;;;10.80;99.90;;;;;;5047475;28;20950;-73
2024/01/03 03:16:07;;;;;;;0.50;0.10;;;10.80;99.90;;;;;;5050042;28;20464;-73
2024/01/03 03:18:35;;;;;;;0.50;0.10;;;10.80;99.90;;;;;;5050757;28;20442;-72
2024/01/03 03:21:03;;;;;;;0.50;0.20;;;10.80;99.90;;;;;;5048688;28;20445;-72
2024/01/03 03:23:31;;;;;;;0.50;0.10;;;10.80;99.90;;;;;;5040815;28;20489;-73
2024/01/03 03:26:01;;;;;;;1.10;0.40;;;10.80;99.90;;;;;;5040368;28;20561;-73
2024/01/03 03:28:29;;;;;;;0.50;0.10;;;10.90;99.90;;;;;;5040477;28;20444;-73
2024/01/03 03:30:58;;;;;;;0.50;0.10;;;10.90;99.90;;;;;;5040180;28;20543;-73
2024/01/03 03:33:26;;;;;;;0.50;0.10;;;10.90;99.90;;;;;;5040633;28;20445;-73
2024/01/03 03:35:54;;;;;;;0.80;0.20;;;10.90;99.90;;;;;;5048178;28;20453;-73
2024/01/03 03:38:22;;;;;;;0.60;0.20;;;10.90;99.90;;;;;;5042556;28;20927;-73
2024/01/03 03:40:50;;;;;;;0.50;0.10;;;10.80;99.90;;;;;;5050791;28;20503;-73
2024/01/03 03:43:18;;;;;;;1.37;0.50;;;10.80;99.90;;;;;;5047753;28;20447;-72
2024/01/03 03:45:46;;;;;;;0.60;0.20;;;10.80;99.90;;;;;;5049172;28;21016;-73
2024/01/03 03:48:15;;;;;;;0.50;0.10;;;10.80;99.90;;;;;;5038345;28;20450;-72
2024/01/03 03:50:44;;;;;;;0.50;0.10;;;10.90;99.90;;;;;;5047775;28;20441;-73
2024/01/03 03:53:12;;;;;;;0.60;0.20;;;10.90;99.90;;;;;;5045306;28;20547;-74
2024/01/03 03:55:43;;;;;;;0.50;0.20;;;10.90;99.90;;;;;;5043907;28;20663;-73
2024/01/03 03:58:11;;;;;;;0.50;0.20;;;10.90;99.90;;;;;;5050434;28;20484;-73
2024/01/03 04:00:39;;;;;;;0.90;0.20;;;10.90;99.90;;;;;;5047306;28;20448;-73
2024/01/03 04:03:08;;;;;;;0.50;0.10;;;10.90;99.90;;;;;;5045738;28;20444;-72
2024/01/03 04:05:39;;;;;;;0.50;0.10;;;10.90;99.90;;;;;;5040510;28;20522;-72
2024/01/03 04:08:07;;;;;;;0.50;0.10;;;11.00;99.90;;;;;;5045529;28;20475;-73
2024/01/03 04:10:36;;;;;;;0.50;0.10;;;11.00;99.90;;;;;;5044024;28;20532;-73
2024/01/03 04:13:05;;;;;;;0.50;0.10;;;11.00;99.90;;;;;;5043465;28;20445;-72
2024/01/03 04:15:32;;;;;;;0.73;0.73;;;11.00;99.90;;;;;;5047927;28;20452;-73
2024/01/03 04:18:01;;;;;;;0.50;0.10;;;10.90;99.90;;;;;;5043227;28;20870;-73
2024/01/03 04:20:29;;;;;;;0.50;0.20;;;10.80;99.90;;;;;;5043171;28;20506;-73
2024/01/03 04:22:58;;;;;;;0.67;0.40;;;10.70;99.90;;;;;;5051719;28;20536;-72
2024/01/03 04:25:26;;;;;;;0.60;0.47;;;10.60;99.90;;;;;;5046661;28;20491;-72
2024/01/03 04:27:54;;;;;;;0.60;0.30;;;10.60;99.90;;;;;;5046776;28;20463;-73
2024/01/03 04:30:22;;;;;;;0.50;0.10;;;10.60;99.90;;;;;;5042107;28;20535;-73
2024/01/03 04:32:50;;;;;;;0.50;0.10;;;;;;;;;;5046752;28;20483;-73
2024/01/03 04:35:18;;;;;;;0.50;0.10;;;10.50;99.90;;;;;;5043450;28;20449;-73
2024/01/03 04:37:46;;;;;;;0.80;0.47;;;10.60;99.90;;;;;;5040967;28;20829;-74
2024/01/03 04:40:16;;;;;;;0.50;0.20;;;;;;;;;;5044602;28;20445;-72
2024/01/03 04:42:47;;;;;;;0.50;0.20;;;10.60;99.90;;;;;;5043447;28;20465;-74
2024/01/03 04:45:15;;;;;;;0.50;0.10;;;10.60;99.90;;;;;;5044445;28;20528;-73
2024/01/03 04:47:42;;;;;;;1.13;0.30;;;10.60;99.90;;;;;;5045928;28;20463;-73
2024/01/03 04:50:10;;;;;;;6.60;0.67;;;10.60;99.90;;;;;;5037817;28;20544;-73
2024/01/03 04:52:38;;;;;;;0.50;0.10;;;10.60;99.90;;;;;;5046588;28;20468;-74
2024/01/03 04:55:07;;;;;;;0.50;0.10;;;10.60;99.90;;;;;;5045614;28;20448;-73
2024/01/03 04:57:37;;;;;;;0.50;0.10;;;10.60;99.90;;;;;;5042621;28;20555;-73
2024/01/03 05:00:06;;;;;;;0.70;0.30;;;10.60;99.90;;;;;;5043370;28;20477;-73
2024/01/03 05:02:34;;;;;;;0.60;0.40;;;10.60;99.90;;;;;;5033861;28;20450;-73
2024/01/03 05:05:02;;;;;;;0.50;0.10;;;10.60;99.90;;;;;;5041940;28;20494;-72
2024/01/03 05:07:31;;;;;;;0.50;0.10;;;10.60;99.90;;;;;;5037245;28;20462;-73
2024/01/03 05:09:59;;;;;;;0.50;0.27;;;10.60;99.90;;;;;;5045269;28;20506;-73
2024/01/03 05:12:26;;;;;;;16.13;0.97;;;10.60;99.90;;;;;;5044591;28;20473;-73
2024/01/03 05:14:56;;;;;;;0.50;0.10;;;10.60;99.90;;;;;;5041926;28;20442;-72
2024/01/03 05:17:26;;;;;;;0.50;0.10;;;10.70;99.90;;;;;;5049086;28;20487;-73
2024/01/03 05:19:54;;;;;;;1.60;0.87;;;10.70;99.90;;;;;;5042331;28;20449;-74
2024/01/03 05:22:22;;;;;;;0.50;0.10;;;10.80;99.90;;;;;;5044497;28;21189;-74
2024/01/03 05:24:50;;;;;;;0.50;0.10;;;10.80;99.90;;;;;;5046333;28;20515;-72
2024/01/03 05:27:17;;;;;;;0.50;0.10;;;10.80;99.90;;;;;;5042064;28;20476;-73
2024/01/03 05:29:45;;;;;;;0.50;0.10;;;10.80;99.90;;;;;;5039033;28;20473;-73
2024/01/03 05:32:14;;;;;;;0.50;0.10;;;10.80;99.90;;;;;;5049055;28;21025;-73
2024/01/03 05:34:42;;;;;;;21.87;1.47;;;10.80;99.90;;;;;;5038987;28;20489;-72
2024/01/03 05:37:10;;;;;;;0.60;0.40;;;10.80;99.90;;;;;;5033766;28;20501;-73
2024/01/03 05:39:38;;;;;;;0.50;0.10;;;10.80;99.90;;;;;;5039918;28;20467;-72
2024/01/03 05:42:08;;;;;;;0.50;0.10;;;10.80;99.90;;;;;;5039809;28;20449;-73
2024/01/03 05:44:36;;;;;;;2.80;1.17;;;10.80;99.90;;;;;;5037309;28;20905;-73
2024/01/03 05:47:04;;;;;;;0.50;0.10;;;10.70;99.90;;;;;;5043431;28;20489;-73
2024/01/03 05:49:34;;;;;;;0.50;0.20;;;10.80;99.90;;;;;;5036476;28;20516;-73
2024/01/03 05:52:03;;;;;;;0.50;0.10;;;10.80;99.90;;;;;;5044309;28;20494;-73
2024/01/03 05:54:32;;;;;;;0.70;0.30;;;10.80;99.90;;;;;;5039715;28;20436;-73
2024/01/03 05:57:00;;;;;;;0.80;0.50;;;10.80;99.90;;;;;;5040875;28;20472;-73
2024/01/03 05:59:29;;;;;;;0.50;0.10;;;10.80;99.90;;;;;;5044327;28;20448;-73
2024/01/03 06:01:57;;;;;;;0.50;0.10;;;10.80;99.90;;;;;;5055382;28;20470;-73
2024/01/03 06:04:25;;;;;;;2.97;0.83;;;10.80;99.90;;;;;;5051887;28;20483;-73
2024/01/03 06:06:55;;;;;;;0.50;0.10;;;10.80;99.90;;;;;;5040544;28;20504;-72
2024/01/03 06:09:23;;;;;;;10.93;0.87;;;10.90;99.90;;;;;;5043179;28;20764;-73
2024/01/03 06:11:50;;;;;;;0.50;0.20;;;10.90;99.90;;;;;;5041998;28;20540;-73
2024/01/03 06:14:18;;;;;;;0.50;0.10;;;10.80;99.90;;;;;;5044211;28;20457;-73
2024/01/03 06:16:46;;;;;;;0.50;0.10;;;10.90;99.90;;;;;;5039279;28;20970;-73
2024/01/03 06:19:14;;;;;;;0.50;0.10;;;10.90;99.90;;;;;;5043972;28;20529;-73
2024/01/03 06:21:42;;;;;;;0.50;0.20;;;10.90;99.90;;;;;;5044695;28;20453;-74
2024/01/03 06:24:11;;;;;;;2.93;0.60;;;10.90;99.90;;;;;;5045690;28;20924;-73
2024/01/03 06:26:39;;;;;;;0.50;0.10;;;10.80;99.90;;;;;;5042070;28;20563;-74
2024/01/03 06:29:08;;;;;;;0.70;0.20;;;10.80;99.90;;;;;;5043778;28;20466;-73
2024/01/03 06:31:36;;;;;;;0.70;0.20;;;10.80;99.90;;;;;;5046602;28;20813;-72
2024/01/03 06:34:06;;;;;;;1.10;0.50;;;10.80;99.90;;;;;;5042325;28;20461;-73
2024/01/03 06:36:34;;;;;;;0.90;0.40;;;10.90;99.90;;;;;;5041054;28;20467;-73
2024/01/03 06:39:02;;;;;;;0.50;0.10;;;15.00;99.90;;;;;;5038190;28;20469;-73
2024/01/03 06:41:31;;;;;;;0.50;0.20;;;10.90;99.90;;;;;;5037687;28;20442;-73
2024/01/03 06:43:59;;;;;;;0.50;0.30;;;10.90;99.90;;;;;;5041863;28;20444;-73
2024/01/03 06:46:28;;;;;;;0.60;0.23;;;10.90;99.90;;;;;;5044102;28;20589;-73
2024/01/03 06:48:57;;;;;;;0.50;0.10;;;10.90;99.90;;;;;;5036511;28;20455;-73
2024/01/03 06:51:25;;;;;;;10.03;0.77;;;10.90;99.90;;;;;;5031992;28;20456;-74
2024/01/03 06:53:53;;;;;;;0.50;0.10;;;11.00;99.90;;;;;;5042639;28;20509;-73
2024/01/03 06:56:23;;;;;;;0.70;0.30;;;11.00;99.90;;;;;;5030987;28;20482;-73
2024/01/03 06:58:53;;;;;;;0.50;0.10;;;11.00;99.90;;;;;;5038178;28;20532;-75
2024/01/03 07:01:21;;;;;;;0.50;0.10;;;11.00;99.90;;;;;;5042732;28;20871;-74
2024/01/03 07:03:48;;;;;;;2.60;0.47;;;11.00;99.90;;;;;;5051734;28;20497;-72
2024/01/03 07:06:17;;;;;;;4.10;0.30;;;11.00;99.90;;;;;;5033570;28;20520;-74
2024/01/03 07:08:48;;;;;;;0.50;0.10;;;11.00;99.90;;;;;;5037236;28;20460;-74
2024/01/03 07:11:17;;;;;;;2.60;0.60;;;11.00;99.90;;;;;;5043268;28;20449;-73
2024/01/03 07:13:45;;;;;;;0.60;0.20;;;11.00;99.90;;;;;;5039987;28;20611;-73
2024/01/03 07:16:15;;;;;;;0.50;0.10;;;;;;;;;;5030914;28;20878;-75
2024/01/03 07:18:43;;;;;;;0.50;0.20;;;11.00;99.90;;;;;;5031549;28;20469;-74
2024/01/03 07:21:11;;;;;;;1.47;0.30;;;11.00;99.90;;;;;;5039667;28;20455;-75
2024/01/03 07:23:39;;;;;;;0.50;0.10;;;11.00;99.90;;;;;;5031643;28;20891;-73
2024/01/03 07:26:07;;;;;;;0.97;0.70;;;11.10;99.90;;;;;;5036336;28;20999;-74
2024/01/03 07:28:36;;;;;;;0.50;0.10;;;11.00;99.90;;;;;;5031570;28;20884;-73
2024/01/03 07:31:04;;;;;;;0.50;0.10;;;11.00;99.90;;;;;;5048354;28;21056;-74
2024/01/03 07:33:34;;;;;;;0.50;0.10;;;;;;;;;;5039909;28;20827;-73
2024/01/03 07:36:02;;;;;;;0.50;0.10;;;11.00;99.90;;;;;;5031243;28;20455;-74
2024/01/03 07:38:30;;;;;;;0.50;0.10;;;11.10;99.90;;;;;;5041057;28;21143;-73
2024/01/03 07:40:59;;;;;;;0.50;0.10;;;11.10;99.90;;;;;;5045020;28;20448;-72
2024/01/03 07:43:27;;;;;;;2.90;1.23;;;11.20;99.90;;;;;;5043239;28;20932;-72
2024/01/03 07:45:55;;;;;;;0.80;0.20;;;11.20;99.90;;;;;;5045324;28;20517;-73
2024/01/03 07:48:23;;;;;;;0.50;0.10;;;11.10;99.90;;;;;;5044287;28;20531;-74
2024/01/03 07:50:53;;;;;;;0.50;0.10;;;11.20;99.90;;;;;;5040920;28;20448;-73
2024/01/03 07:53:21;;;;;;;0.60;0.47;;;11.20;99.90;;;;;;5036012;28;20441;-73
2024/01/03 07:55:50;;;;;;;0.60;0.20;;;11.20;99.90;;;;;;5033824;28;20489;-73
2024/01/03 07:58:17;;;;;;;1.63;1.53;;;11.20;99.90;;;;;;5032093;28;20476;-73
2024/01/03 08:00:45;;;;;;;0.50;0.10;;;11.10;99.90;;;;;;5038838;28;20444;-74
2024/01/03 08:03:13;;;;;;;0.50;0.10;;;11.10;99.90;;;;;;5039200;28;21053;-75
2024/01/03 08:05:41;;;;;;;0.50;0.10;;;11.10;99.90;;;;;;5043221;28;20445;-75
2024/01/03 08:08:11;;;;;;;0.50;0.10;;;11.10;99.90;;;;;;5039899;28;20453;-73
2024/01/03 08:10:39;;;;;;;1.90;1.80;;;11.10;99.90;;;;;;5035341;28;20467;-73
2024/01/03 08:13:08;;;;;;;0.50;0.10;;;;;;;;;;5043205;28;20487;-75
2024/01/03 08:15:35;;;;;;;0.50;0.10;;;11.10;99.90;;;;;;5042125;28;20536;-73
2024/01/03 08:18:03;;;;;;;1.87;0.40;;;11.10;99.90;;;;;;5050247;28;20463;-74
2024/01/03 08:20:32;;;;;;;0.70;0.60;;;11.00;99.90;;;;;;5037961;28;21146;-72
2024/01/03 08:23:00;;;;;;;0.50;0.10;;;11.00;99.90;;;;;;5041943;28;20464;-73
2024/01/03 08:25:29;;;;;;;0.50;0.10;;;11.00;99.90;;;;;;5041084;28;20877;-77
2024/01/03 08:27:57;;;;;;;0.50;0.10;;;11.00;99.90;;;;;;5037309;28;20478;-73
2024/01/03 08:30:25;;;;;;;0.50;0.20;;;11.00;99.90;;;;;;5042611;28;20455;-74
2024/01/03 08:32:53;;;;;;;0.50;0.10;;;10.90;99.90;;;;;;5043032;28;20451;-74
2024/01/03 08:35:21;;;;;;;0.80;0.43;;;11.00;99.90;;;;;;5042767;28;20973;-75
2024/01/03 08:37:49;;;;;;;0.60;0.30;;;11.10;99.90;;;;;;5046624;28;20905;-74
2024/01/03 08:40:17;;;;;;;0.50;0.10;;;11.10;99.90;;;;;;5039410;28;20637;-74
2024/01/03 08:42:46;;;;;;;0.50;0.10;;;11.10;99.90;;;;;;5034283;28;20967;-74
2024/01/03 08:45:14;;;;;;;0.50;0.10;;;;;;;;;;5041974;28;20452;-74
2024/01/03 08:47:42;;;;;;;0.50;0.10;;;11.20;99.90;;;;;;5042306;28;20496;-75
2024/01/03 08:50:13;;;;;;;0.50;0.10;;;11.20;99.90;;;;;;5050629;28;20546;-74
2024/01/03 08:52:42;;;;;;;3.50;3.30;;;11.20;99.90;;;;;;5049543;28;20450;-74
2024/01/03 08:55:10;;;;;;;0.50;0.10;;;11.30;99.90;;;;;;5046193;28;20972;-74
2024/01/03 08:57:38;;;;;;;0.50;0.10;;;11.40;99.90;;;;;;5064143;28;20818;-73
2024/01/03 09:00:10;;;;;;;0.60;0.30;;;11.30;99.90;;;;;;5055174;28;20481;-74
2024/01/03 09:02:39;;;;;;;0.60;0.20;;;11.30;99.90;;;;;;5052861;28;20982;-75
2024/01/03 09:05:07;;;;;;;0.67;0.27;;;11.30;99.90;;;;;;5046028;28;20468;-74
2024/01/03 09:07:36;;;;;;;0.50;0.10;;;;;;;;;;5033925;28;20533;-75
2024/01/03 09:10:04;;;;;;;0.50;0.10;;;11.40;99.90;;;;;;5036343;28;20443;-75
2024/01/03 09:12:32;;;;;;;0.60;0.20;;;11.40;99.90;;;;;;5043039;28;20449;-76
2024/01/03 09:15:00;;;;;;;0.50;0.17;;;11.40;99.90;;;;;;5039119;28;20464;-76
2024/01/03 09:17:29;;;;;;;0.50;0.10;;;11.30;99.90;;;;;;5037408;28;20564;-76
2024/01/03 09:19:57;;;;;;;1.90;0.87;;;11.40;99.90;;;;;;5049051;28;20472;-75
2024/01/03 09:22:25;;;;;;;0.50;0.10;;;11.40;99.90;;;;;;5041191;28;20834;-76
2024/01/03 09:24:54;;;;;;;0.50;0.10;;;;;;;;;;5043548;28;20436;-75
2024/01/03 09:27:22;;;;;;;0.50;0.10;;;;;;;;;;5044128;28;20489;-75
2024/01/03 09:29:50;;;;;;;0.50;0.20;;;11.50;99.90;;;;;;5043604;28;20445;-75
2024/01/03 09:32:19;;;;;;;0.50;0.10;;;;;;;;;;5042391;28;20450;-74
2024/01/03 09:34:48;;;;;;;0.50;0.10;;;;;;;;;;5041323;28;20450;-76
2024/01/03 09:37:17;;;;;;;0.50;0.10;;;11.60;99.90;;;;;;5040298;28;20468;-76
2024/01/03 09:39:44;;;;;;;0.83;0.50;;;11.60;99.90;;;;;;5043208;28;20532;-75
2024/01/03 09:42:13;;;;;;;1.00;0.33;;;11.60;99.90;;;;;;5039958;28;20881;-76
2024/01/03 09:44:42;;;;;;;0.50;0.20;;;11.60;99.90;;;;;;5040851;28;20449;-74
2024/01/03 09:47:12;;;;;;;0.70;0.20;;;11.70;99.90;;;;;;5036914;28;20493;-74
2024/01/03 09:49:40;;;;;;;2.67;1.10;;;11.70;99.90;;;;;;5047140;28;20453;-77
2024/01/03 09:52:10;;;;;;;0.50;0.10;;;11.70;99.90;;;;;;5047851;28;20453;-75
2024/01/03 09:54:41;;;;;;;0.50;0.10;;;11.70;99.90;;;;;;5051205;28;20483;-75
2024/01/03 09:57:11;;;;;;;1.07;0.60;;;11.80;99.90;;;;;;5041913;28;20482;-74
2024/01/03 09:59:39;;;;;;;0.70;0.40;;;11.90;99.90;;;;;;5041679;28;20469;-77
2024/01/03 10:02:09;;;;;;;0.90;0.30;;;12.00;99.90;;;;;;5043298;28;20442;-74
2024/01/03 10:04:37;;;;;;;0.50;0.20;;;11.90;99.90;;;;;;5042033;28;20496;-74
2024/01/03 10:07:05;;;;;;;0.50;0.10;;;11.90;99.90;;;;;;5041552;28;20525;-76
2024/01/03 10:09:45;;;;;;;0.50;0.10;;;12.00;99.90;;;;;;5035683;28;20823;-76
2024/01/03 10:12:17;;;;;;;0.70;0.37;;;12.10;99.90;;;;;;5035475;28;20965;-74
2024/01/03 10:14:45;;;;;;;0.63;0.20;;;12.10;99.90;;;;;;5039308;28;20435;-74
2024/01/03 10:17:14;;;;;;;0.50;0.17;;;12.20;99.90;;;;;;5037529;28;20953;-72
2024/01/03 10:19:42;;;;;;;0.60;0.30;;;12.30;99.90;;;;;;5036286;28;20548;-73
2024/01/03 10:22:10;;;;;;;0.50;0.10;;;12.40;99.90;;;;;;5039369;28;20848;-74
2024/01/03 10:24:43;;;;;;;0.50;0.10;;;12.40;99.90;;;;;;5042720;28;20956;-74
2024/01/03 10:27:12;;;;;;;1.07;0.40;;;12.50;99.90;;;;;;5038398;28;20564;-74
2024/01/03 10:29:40;;;;;;;0.50;0.20;;;12.50;99.90;;;;;;5042126;28;20455;-75
2024/01/03 10:32:10;;;;;;;0.60;0.20;;;12.50;99.90;;;;;;5032466;28;20454;-76
2024/01/03 10:34:38;;;;;;;2.03;0.73;;;12.50;99.90;;;;;;5049503;28;20442;-75
2024/01/03 10:37:06;;;;;;;0.50;0.10;;;12.60;99.90;;;;;;5045454;28;20475;-76
2024/01/03 10:39:37;;;;;;;4.00;1.43;;;12.60;99.90;;;;;;5039183;28;20468;-75
2024/01/03 10:42:08;;;;;;;4.00;2.27;;;12.60;99.90;;;;;;5045927;28;20470;-75
2024/01/03 10:44:37;;;;;;;0.50;0.10;;;12.60;99.90;;;;;;5033016;28;20957;-75
2024/01/03 10:47:06;;;;;;;3.40;1.13;;;12.60;99.90;;;;;;5030695;28;20469;-75
2024/01/03 10:49:34;;;;;;;0.50;0.10;;;;;;;;;;5031858;28;20534;-75
2024/01/03 10:52:05;;;;;;;0.50;0.10;;;12.70;99.90;;;;;;5034514;28;20439;-74
2024/01/03 10:54:47;;;;;;;0.50;0.20;;;12.70;99.90;;;;;;5040762;28;20454;-75
2024/01/03 10:57:20;;;;;;;0.50;0.10;;;12.70;99.90;;;;;;5040626;28;21050;-75
2024/01/03 11:00:02;;;;;;;2.17;1.53;;;12.70;99.90;;;;;;5037853;28;20446;-74
2024/01/03 11:02:36;;;;;;;0.50;0.13;;;12.70;99.90;;;;;;5040183;28;20468;-76
2024/01/03 11:05:14;;;;;;;6.90;1.27;;;12.70;99.90;;;;;;5038697;28;20450;-76
2024/01/03 11:07:50;;;;;;;0.50;0.20;;;12.70;99.90;;;;;;5042855;28;20489;-75
2024/01/03 11:10:48;;;;;;;0.80;0.20;;;12.70;99.90;;;;;;5042568;28;20458;-75
2024/01/03 11:13:28;;;;;;;1.03;0.40;;;12.60;99.90;;;;;;5032470;28;20876;-74
2024/01/03 11:15:56;;;;;;;0.60;0.20;;;;;;;;;;5044124;28;21076;-75
2024/01/03 11:18:54;;;;;;;9.63;0.97;;;12.60;99.90;;;;;;5049440;28;20462;-75
2024/01/03 11:21:42;;;;;;;0.50;0.17;;;12.60;99.90;;;;;;5041301;28;20497;-75
2024/01/03 11:24:56;;;;;;;0.60;0.30;;;12.70;99.90;;;;;;5041534;28;20542;-75
2024/01/03 11:27:25;;;;;;;0.50;0.10;;;12.70;99.90;;;;;;5044652;28;20481;-75
2024/01/03 11:29:55;;;;;;;0.50;0.10;;;12.80;99.90;;;;;;5041666;28;20449;-75
2024/01/03 11:32:34;;;;;;;0.70;0.27;;;12.90;99.90;;;;;;5037678;28;20486;-76
2024/01/03 11:35:08;;;;;;;0.80;0.57;;;13.00;99.90;;;;;;5051951;28;20453;-77
2024/01/03 11:37:39;;;;;;;0.90;0.40;;;;;;;;;;5058422;28;20470;-77
2024/01/03 11:40:17;;;;;;;0.60;0.20;;;13.00;99.90;;;;;;5051454;28;20439;-75
2024/01/03 11:42:46;;;;;;;0.60;0.30;;;;;;;;;;5055814;28;20454;-75
2024/01/03 11:45:17;;;;;;;1.00;0.40;;;13.00;99.90;;;;;;5057367;28;20486;-75
2024/01/03 11:47:47;;;;;;;0.50;0.10;;;13.10;99.90;;;;;;5047818;28;20523;-75
2024/01/03 11:50:17;;;;;;;0.50;0.20;;;13.00;99.90;;;;;;5052338;28;20450;-74
2024/01/03 11:52:47;;;;;;;0.60;0.20;;;13.10;99.90;;;;;;5046626;28;20455;-74
2024/01/03 11:55:18;;;;;;;0.60;0.30;;;13.10;99.90;;;;;;5052085;28;20541;-74
2024/01/03 11:57:48;;;;;;;0.90;0.40;;;13.10;99.90;;;;;;5055005;28;20491;-74
2024/01/03 12:00:20;;;;;;;1.17;0.50;;;8.80;99.90;;;;;;5045832;28;20446;-76
2024/01/03 12:02:52;;;;;;;0.50;0.10;;;13.10;99.90;;;;;;5038975;28;20554;-75
2024/01/03 12:05:21;;;;;;;1.53;0.30;;;13.10;99.90;;;;;;5039416;28;20450;-75
2024/01/03 12:07:50;;;;;;;1.00;0.50;;;13.10;99.90;;;;;;5051454;28;20486;-75
2024/01/03 12:10:21;;;;;;;2.40;0.50;;;13.10;99.90;;;;;;5050041;28;20904;-75
2024/01/03 12:12:51;;;;;;;0.80;0.20;;;13.10;99.90;;;;;;5049518;28;20542;-76
2024/01/03 12:15:26;;;;;;;0.50;0.20;;;13.10;99.90;;;;;;5041069;28;20450;-74
2024/01/03 12:18:14;;;;;;;0.50;0.20;;;13.10;99.90;;;;;;5043615;28;20466;-74
2024/01/03 12:20:43;;;;;;;0.50;0.10;;;13.10;99.90;;;;;;5044219;28;20461;-75
2024/01/03 12:23:14;;;;;;;0.50;0.10;;;13.10;99.90;;;;;;5047134;28;20476;-75
2024/01/03 12:25:43;;;;;;;0.90;0.30;;;13.20;99.90;;;;;;5044822;28;20508;-76
2024/01/03 12:28:18;;;;;;;0.50;0.10;;;13.20;99.90;;;;;;5034319;28;20482;-74
2024/01/03 12:30:49;;;;;;;0.60;0.10;;;13.30;99.90;;;;;;5038079;28;20944;-75
2024/01/03 12:33:18;;;;;;;0.57;0.27;;;;;;;;;;5040400;28;20451;-76
2024/01/03 12:35:47;;;;;;;1.27;0.43;;;13.20;99.90;;;;;;5050079;28;20460;-73
2024/01/03 12:38:15;;;;;;;0.50;0.10;;;13.20;99.90;;;;;;5048036;28;20458;-74
2024/01/03 12:40:44;;;;;;;1.03;0.73;;;;;;;;;;5045110;28;20470;-74
2024/01/03 12:43:13;;;;;;;0.50;0.10;;;;;;;;;;5049458;28;20470;-75
2024/01/03 12:45:46;;;;;;;2.27;0.73;;;13.10;99.90;;;;;;5045648;28;20500;-75
2024/01/03 12:48:14;;;;;;;1.47;0.30;;;13.10;99.90;;;;;;5049662;28;20450;-75
2024/01/03 12:50:43;;;;;;;0.97;0.87;;;13.10;99.90;;;;;;5045777;28;20458;-73
2024/01/03 12:53:11;;;;;;;0.80;0.20;;;;;;;;;;5043182;28;20553;-76
2024/01/03 12:55:39;;;;;;;0.60;0.20;;;12.90;99.90;;;;;;5033465;28;20458;-74
2024/01/03 12:58:07;;;;;;;0.60;0.10;;;12.90;99.90;;;;;;5037420;28;20457;-74
2024/01/03 13:00:35;;;;;;;0.50;0.20;;;12.90;99.90;;;;;;5041962;28;20483;-75
2024/01/03 13:03:04;;;;;;;2.00;0.27;;;12.90;99.90;;;;;;5039808;28;20443;-74
2024/01/03 13:05:32;;;;;;;4.83;0.40;;;12.80;99.90;;;;;;5051280;28;20477;-74